sensor_id;sensor_type;location;lat;lon;timestamp;temperature;humidity
5775;DHT22;2913;51.120;6.772;2023-04-24T00:01:07;11.50;99.90
5775;DHT22;2913;51.120;6.772;2023-04-24T00:03:33;11.40;99.90
5775;DHT22;2913;51.120;6.772;2023-04-24T00:05:58;11.30;99.90
5775;DHT22;2913;51.120;6.772;2023-04-24T00:08:30;11.30;99.90
5775;DHT22;2913;51.120;6.772;2023-04-24T00:10:58;11.30;99.90
5775;DHT22;2913;51.120;6.772;2023-04-24T00:13:24;11.30;99.90
5775;DHT22;2913;51.120;6.772;2023-04-24T00:15:52;11.30;99.90
5775;DHT22;2913;51.120;6.772;2023-04-24T00:18:17;11.20;99.90
5775;DHT22;2913;51.120;6.772;2023-04-24T00:20:45;11.30;99.90
5775;DHT22;2913;51.120;6.772;2023-04-24T00:23:12;11.30;99.90
5775;DHT22;2913;51.120;6.772;2023-04-24T00:25:38;11.30;99.90
5775;DHT22;2913;51.120;6.772;2023-04-24T00:28:04;11.30;99.90
5775;DHT22;2913;51.120;6.772;2023-04-24T00:30:32;11.30;99.90
5775;DHT22;2913;51.120;6.772;2023-04-24T00:33:00;11.30;99.90
5775;DHT22;2913;51.120;6.772;2023-04-24T00:35:25;11.40;99.90
5775;DHT22;2913;51.120;6.772;2023-04-24T00:37:51;11.40;99.90
5775;DHT22;2913;51.120;6.772;2023-04-24T00:40:17;11.40;99.90
5775;DHT22;2913;51.120;6.772;2023-04-24T00:42:43;11.40;99.90
5775;DHT22;2913;51.120;6.772;2023-04-24T00:45:10;11.40;99.90
5775;DHT22;2913;51.120;6.772;2023-04-24T00:47:36;11.40;99.90
5775;DHT22;2913;51.120;6.772;2023-04-24T00:50:06;11.40;99.90
5775;DHT22;2913;51.120;6.772;2023-04-24T00:52:34;11.40;99.90
5775;DHT22;2913;51.120;6.772;2023-04-24T00:54:59;11.40;99.90
5775;DHT22;2913;51.120;6.772;2023-04-24T00:57:26;11.50;99.90
5775;DHT22;2913;51.120;6.772;2023-04-24T00:59:52;11.40;99.90
5775;DHT22;2913;51.120;6.772;2023-04-24T01:02:22;11.50;99.90
5775;DHT22;2913;51.120;6.772;2023-04-24T01:04:50;11.40;99.90
5775;DHT22;2913;51.120;6.772;2023-04-24T01:07:20;11.30;99.90
5775;DHT22;2913;51.120;6.772;2023-04-24T01:09:48;11.30;99.90
5775;DHT22;2913;51.120;6.772;2023-04-24T01:12:16;11.40;99.90
5775;DHT22;2913;51.120;6.772;2023-04-24T01:14:42;11.30;99.90
5775;DHT22;2913;51.120;6.772;2023-04-24T01:17:08;11.20;99.90
5775;DHT22;2913;51.120;6.772;2023-04-24T01:19:34;11.10;99.90
5775;DHT22;2913;51.120;6.772;2023-04-24T01:24:30;10.90;99.90
5775;DHT22;2913;51.120;6.772;2023-04-24T01:26:58;10.80;99.90
5775;DHT22;2913;51.120;6.772;2023-04-24T01:29:24;10.80;99.90
5775;DHT22;2913;51.120;6.772;2023-04-24T01:31:52;10.70;99.90
5775;DHT22;2913;51.120;6.772;2023-04-24T01:34:18;10.60;99.90
5775;DHT22;2913;51.120;6.772;2023-04-24T01:36:45;10.60;99.90
5775;DHT22;2913;51.120;6.772;2023-04-24T01:39:12;10.60;99.90
5775;DHT22;2913;51.120;6.772;2023-04-24T01:41:37;10.50;99.90
5775;DHT22;2913;51.120;6.772;2023-04-24T01:44:06;10.50;99.90
5775;DHT22;2913;51.120;6.772;2023-04-24T01:46:31;10.40;99.90
5775;DHT22;2913;51.120;6.772;2023-04-24T01:49:00;10.40;99.90
5775;DHT22;2913;51.120;6.772;2023-04-24T01:51:26;10.30;99.90
5775;DHT22;2913;51.120;6.772;2023-04-24T01:53:52;10.20;99.90
5775;DHT22;2913;51.120;6.772;2023-04-24T01:56:22;10.20;99.90
5775;DHT22;2913;51.120;6.772;2023-04-24T01:58:51;10.20;99.90
5775;DHT22;2913;51.120;6.772;2023-04-24T02:01:23;10.10;99.90
5775;DHT22;2913;51.120;6.772;2023-04-24T02:03:54;10.10;99.90
5775;DHT22;2913;51.120;6.772;2023-04-24T02:06:19;10.10;99.90
5775;DHT22;2913;51.120;6.772;2023-04-24T02:08:45;10.10;99.90
5775;DHT22;2913;51.120;6.772;2023-04-24T02:11:10;10.20;99.90
5775;DHT22;2913;51.120;6.772;2023-04-24T02:13:41;10.20;99.90
5775;DHT22;2913;51.120;6.772;2023-04-24T02:16:09;10.10;99.90
5775;DHT22;2913;51.120;6.772;2023-04-24T02:18:34;10.20;99.90
5775;DHT22;2913;51.120;6.772;2023-04-24T02:21:02;10.30;99.90
5775;DHT22;2913;51.120;6.772;2023-04-24T02:23:28;10.20;99.90
5775;DHT22;2913;51.120;6.772;2023-04-24T02:25:53;10.10;99.90
5775;DHT22;2913;51.120;6.772;2023-04-24T02:28:19;10.20;99.90
5775;DHT22;2913;51.120;6.772;2023-04-24T02:30:45;10.20;99.90
5775;DHT22;2913;51.120;6.772;2023-04-24T02:33:11;10.30;99.90
5775;DHT22;2913;51.120;6.772;2023-04-24T02:35:39;10.20;99.90
5775;DHT22;2913;51.120;6.772;2023-04-24T02:38:05;10.30;99.90
5775;DHT22;2913;51.120;6.772;2023-04-24T02:40:30;10.30;99.90
5775;DHT22;2913;51.120;6.772;2023-04-24T02:42:56;10.30;99.90
5775;DHT22;2913;51.120;6.772;2023-04-24T02:45:24;10.30;99.90
5775;DHT22;2913;51.120;6.772;2023-04-24T02:47:52;10.30;99.90
5775;DHT22;2913;51.120;6.772;2023-04-24T02:50:17;10.40;99.90
5775;DHT22;2913;51.120;6.772;2023-04-24T02:52:43;10.40;99.90
5775;DHT22;2913;51.120;6.772;2023-04-24T02:55:11;10.40;99.90
5775;DHT22;2913;51.120;6.772;2023-04-24T02:57:37;10.40;99.90
5775;DHT22;2913;51.120;6.772;2023-04-24T03:00:05;10.30;99.90
5775;DHT22;2913;51.120;6.772;2023-04-24T03:02:32;10.40;99.90
5775;DHT22;2913;51.120;6.772;2023-04-24T03:05:00;10.30;99.90
5775;DHT22;2913;51.120;6.772;2023-04-24T03:07:31;10.30;99.90
5775;DHT22;2913;51.120;6.772;2023-04-24T03:09:59;10.30;99.90
5775;DHT22;2913;51.120;6.772;2023-04-24T03:12:27;10.30;99.90
5775;DHT22;2913;51.120;6.772;2023-04-24T03:14:52;10.30;99.90
5775;DHT22;2913;51.120;6.772;2023-04-24T03:17:18;10.30;99.90
5775;DHT22;2913;51.120;6.772;2023-04-24T03:19:48;10.40;99.90
5775;DHT22;2913;51.120;6.772;2023-04-24T03:22:14;10.40;99.90
5775;DHT22;2913;51.120;6.772;2023-04-24T03:24:40;10.40;99.90
5775;DHT22;2913;51.120;6.772;2023-04-24T03:27:05;10.30;99.90
5775;DHT22;2913;51.120;6.772;2023-04-24T03:29:31;10.30;99.90
5775;DHT22;2913;51.120;6.772;2023-04-24T03:31:57;10.30;99.90
5775;DHT22;2913;51.120;6.772;2023-04-24T03:34:22;10.30;99.90
5775;DHT22;2913;51.120;6.772;2023-04-24T03:36:50;10.30;99.90
5775;DHT22;2913;51.120;6.772;2023-04-24T03:39:16;10.30;99.90
5775;DHT22;2913;51.120;6.772;2023-04-24T03:41:42;10.30;99.90
5775;DHT22;2913;51.120;6.772;2023-04-24T03:44:14;10.30;99.90
5775;DHT22;2913;51.120;6.772;2023-04-24T03:46:40;10.40;99.90
5775;DHT22;2913;51.120;6.772;2023-04-24T03:49:05;10.30;99.90
5775;DHT22;2913;51.120;6.772;2023-04-24T03:51:31;10.20;99.90
5775;DHT22;2913;51.120;6.772;2023-04-24T03:53:57;10.30;99.90
5775;DHT22;2913;51.120;6.772;2023-04-24T03:56:23;10.30;99.90
5775;DHT22;2913;51.120;6.772;2023-04-24T03:58:48;10.20;99.90
5775;DHT22;2913;51.120;6.772;2023-04-24T04:01:14;10.20;99.90
5775;DHT22;2913;51.120;6.772;2023-04-24T04:03:41;10.30;99.90
5775;DHT22;2913;51.120;6.772;2023-04-24T04:06:07;10.30;99.90
5775;DHT22;2913;51.120;6.772;2023-04-24T04:08:32;10.20;99.90
5775;DHT22;2913;51.120;6.772;2023-04-24T04:10:58;10.20;99.90
5775;DHT22;2913;51.120;6.772;2023-04-24T04:13:24;10.10;99.90
5775;DHT22;2913;51.120;6.772;2023-04-24T04:15:49;10.10;99.90
5775;DHT22;2913;51.120;6.772;2023-04-24T04:18:17;10.10;99.90
5775;DHT22;2913;51.120;6.772;2023-04-24T04:20:43;10.20;99.90
5775;DHT22;2913;51.120;6.772;2023-04-24T04:23:09;10.20;99.90
5775;DHT22;2913;51.120;6.772;2023-04-24T04:25:34;10.20;99.90
5775;DHT22;2913;51.120;6.772;2023-04-24T04:28:00;10.20;99.90
5775;DHT22;2913;51.120;6.772;2023-04-24T04:30:27;10.20;99.90
5775;DHT22;2913;51.120;6.772;2023-04-24T04:32:54;10.10;99.90
5775;DHT22;2913;51.120;6.772;2023-04-24T04:35:23;10.10;99.90
5775;DHT22;2913;51.120;6.772;2023-04-24T04:37:49;10.20;99.90
5775;DHT22;2913;51.120;6.772;2023-04-24T04:40:14;10.20;99.90
5775;DHT22;2913;51.120;6.772;2023-04-24T04:42:40;10.20;99.90
5775;DHT22;2913;51.120;6.772;2023-04-24T04:45:09;10.10;99.90
5775;DHT22;2913;51.120;6.772;2023-04-24T04:47:37;10.20;99.90
5775;DHT22;2913;51.120;6.772;2023-04-24T04:50:04;10.20;99.90
5775;DHT22;2913;51.120;6.772;2023-04-24T04:52:31;10.20;99.90
5775;DHT22;2913;51.120;6.772;2023-04-24T04:54:59;10.10;99.90
5775;DHT22;2913;51.120;6.772;2023-04-24T04:57:24;10.10;99.90
5775;DHT22;2913;51.120;6.772;2023-04-24T04:59:50;10.10;99.90
5775;DHT22;2913;51.120;6.772;2023-04-24T05:02:18;10.20;99.90
5775;DHT22;2913;51.120;6.772;2023-04-24T05:04:43;10.20;99.90
5775;DHT22;2913;51.120;6.772;2023-04-24T05:07:10;10.20;99.90
5775;DHT22;2913;51.120;6.772;2023-04-24T05:09:36;10.10;99.90
5775;DHT22;2913;51.120;6.772;2023-04-24T05:12:05;10.10;99.90
5775;DHT22;2913;51.120;6.772;2023-04-24T05:14:30;10.10;99.90
5775;DHT22;2913;51.120;6.772;2023-04-24T05:16:56;10.20;99.90
5775;DHT22;2913;51.120;6.772;2023-04-24T05:19:22;10.10;99.90
5775;DHT22;2913;51.120;6.772;2023-04-24T05:21:49;10.10;99.90
5775;DHT22;2913;51.120;6.772;2023-04-24T05:24:15;10.20;99.90
5775;DHT22;2913;51.120;6.772;2023-04-24T05:26:40;10.10;99.90
5775;DHT22;2913;51.120;6.772;2023-04-24T05:29:09;10.20;99.90
5775;DHT22;2913;51.120;6.772;2023-04-24T05:31:39;10.10;99.90
5775;DHT22;2913;51.120;6.772;2023-04-24T05:34:05;10.00;99.90
5775;DHT22;2913;51.120;6.772;2023-04-24T05:36:33;9.90;99.90
5775;DHT22;2913;51.120;6.772;2023-04-24T05:38:58;9.90;99.90
5775;DHT22;2913;51.120;6.772;2023-04-24T05:41:24;9.80;99.90
5775;DHT22;2913;51.120;6.772;2023-04-24T05:43:50;9.80;99.90
5775;DHT22;2913;51.120;6.772;2023-04-24T05:46:18;9.80;99.90
5775;DHT22;2913;51.120;6.772;2023-04-24T05:48:43;9.80;99.90
5775;DHT22;2913;51.120;6.772;2023-04-24T05:51:12;9.80;99.90
5775;DHT22;2913;51.120;6.772;2023-04-24T05:53:37;9.80;99.90
5775;DHT22;2913;51.120;6.772;2023-04-24T05:56:03;9.80;99.90
5775;DHT22;2913;51.120;6.772;2023-04-24T05:58:31;9.80;99.90
5775;DHT22;2913;51.120;6.772;2023-04-24T06:00:56;9.70;99.90
5775;DHT22;2913;51.120;6.772;2023-04-24T06:03:24;9.70;99.90
5775;DHT22;2913;51.120;6.772;2023-04-24T06:05:50;9.70;99.90
5775;DHT22;2913;51.120;6.772;2023-04-24T06:08:19;9.70;99.90
5775;DHT22;2913;51.120;6.772;2023-04-24T06:10:47;9.80;99.90
5775;DHT22;2913;51.120;6.772;2023-04-24T06:13:15;9.80;99.90
5775;DHT22;2913;51.120;6.772;2023-04-24T06:15:41;9.70;99.90
5775;DHT22;2913;51.120;6.772;2023-04-24T06:18:07;9.80;99.90
5775;DHT22;2913;51.120;6.772;2023-04-24T06:20:35;9.70;99.90
5775;DHT22;2913;51.120;6.772;2023-04-24T06:23:01;9.80;99.90
5775;DHT22;2913;51.120;6.772;2023-04-24T06:25:27;9.60;99.90
5775;DHT22;2913;51.120;6.772;2023-04-24T06:27:53;9.60;99.90
5775;DHT22;2913;51.120;6.772;2023-04-24T06:30:19;9.60;99.90
5775;DHT22;2913;51.120;6.772;2023-04-24T06:32:44;9.60;99.90
5775;DHT22;2913;51.120;6.772;2023-04-24T06:35:10;9.50;99.90
5775;DHT22;2913;51.120;6.772;2023-04-24T06:37:41;9.60;99.90
5775;DHT22;2913;51.120;6.772;2023-04-24T06:40:07;9.50;99.90
5775;DHT22;2913;51.120;6.772;2023-04-24T06:42:33;9.50;99.90
5775;DHT22;2913;51.120;6.772;2023-04-24T06:45:01;9.60;99.90
5775;DHT22;2913;51.120;6.772;2023-04-24T06:47:27;9.60;99.90
5775;DHT22;2913;51.120;6.772;2023-04-24T06:49:53;9.60;99.90
5775;DHT22;2913;51.120;6.772;2023-04-24T06:52:19;9.50;99.90
5775;DHT22;2913;51.120;6.772;2023-04-24T06:54:44;9.50;99.90
5775;DHT22;2913;51.120;6.772;2023-04-24T06:57:10;9.60;99.90
5775;DHT22;2913;51.120;6.772;2023-04-24T06:59:36;9.50;99.90
5775;DHT22;2913;51.120;6.772;2023-04-24T07:02:04;9.40;99.90
5775;DHT22;2913;51.120;6.772;2023-04-24T07:04:30;9.30;99.90
5775;DHT22;2913;51.120;6.772;2023-04-24T07:06:56;9.30;99.90
5775;DHT22;2913;51.120;6.772;2023-04-24T07:09:25;9.40;99.90
5775;DHT22;2913;51.120;6.772;2023-04-24T07:11:56;9.40;99.90
5775;DHT22;2913;51.120;6.772;2023-04-24T07:14:22;9.30;99.90
5775;DHT22;2913;51.120;6.772;2023-04-24T07:16:50;9.20;99.90
5775;DHT22;2913;51.120;6.772;2023-04-24T07:19:15;9.20;99.90
5775;DHT22;2913;51.120;6.772;2023-04-24T07:21:41;9.10;99.90
5775;DHT22;2913;51.120;6.772;2023-04-24T07:24:09;9.20;99.90
5775;DHT22;2913;51.120;6.772;2023-04-24T07:26:37;9.20;99.90
5775;DHT22;2913;51.120;6.772;2023-04-24T07:29:05;9.20;99.90
5775;DHT22;2913;51.120;6.772;2023-04-24T07:31:31;9.20;99.90
5775;DHT22;2913;51.120;6.772;2023-04-24T07:33:59;9.20;99.90
5775;DHT22;2913;51.120;6.772;2023-04-24T07:36:25;9.20;99.90
5775;DHT22;2913;51.120;6.772;2023-04-24T07:38:51;9.20;99.90
5775;DHT22;2913;51.120;6.772;2023-04-24T07:41:17;9.20;99.90
5775;DHT22;2913;51.120;6.772;2023-04-24T07:43:44;9.30;99.90
5775;DHT22;2913;51.120;6.772;2023-04-24T07:46:11;9.10;99.90
5775;DHT22;2913;51.120;6.772;2023-04-24T07:48:39;9.00;99.90
5775;DHT22;2913;51.120;6.772;2023-04-24T07:51:05;8.80;99.90
5775;DHT22;2913;51.120;6.772;2023-04-24T07:53:30;8.70;99.90
5775;DHT22;2913;51.120;6.772;2023-04-24T07:55:59;8.60;99.90
5775;DHT22;2913;51.120;6.772;2023-04-24T07:58:27;8.60;99.90
5775;DHT22;2913;51.120;6.772;2023-04-24T08:00:52;8.40;99.90
5775;DHT22;2913;51.120;6.772;2023-04-24T08:03:18;8.40;99.90
5775;DHT22;2913;51.120;6.772;2023-04-24T08:05:45;8.40;99.90
5775;DHT22;2913;51.120;6.772;2023-04-24T08:08:13;8.30;99.90
5775;DHT22;2913;51.120;6.772;2023-04-24T08:10:41;8.30;99.90
5775;DHT22;2913;51.120;6.772;2023-04-24T08:13:06;8.30;99.90
5775;DHT22;2913;51.120;6.772;2023-04-24T08:15:32;8.20;99.90
5775;DHT22;2913;51.120;6.772;2023-04-24T08:18:03;8.40;99.90
5775;DHT22;2913;51.120;6.772;2023-04-24T08:20:28;8.40;99.90
5775;DHT22;2913;51.120;6.772;2023-04-24T08:22:54;8.40;99.90
5775;DHT22;2913;51.120;6.772;2023-04-24T08:25:20;8.40;99.90
5775;DHT22;2913;51.120;6.772;2023-04-24T08:27:48;8.40;99.90
5775;DHT22;2913;51.120;6.772;2023-04-24T08:30:16;8.60;99.90
5775;DHT22;2913;51.120;6.772;2023-04-24T08:32:44;8.50;99.90
5775;DHT22;2913;51.120;6.772;2023-04-24T08:35:12;8.60;99.90
5775;DHT22;2913;51.120;6.772;2023-04-24T08:37:43;8.60;99.90
5775;DHT22;2913;51.120;6.772;2023-04-24T08:40:17;8.60;99.90
5775;DHT22;2913;51.120;6.772;2023-04-24T08:42:45;8.70;99.90
5775;DHT22;2913;51.120;6.772;2023-04-24T08:45:12;8.60;99.90
5775;DHT22;2913;51.120;6.772;2023-04-24T08:47:39;8.60;99.90
5775;DHT22;2913;51.120;6.772;2023-04-24T08:50:08;8.60;99.90
5775;DHT22;2913;51.120;6.772;2023-04-24T08:52:37;8.70;99.90
5775;DHT22;2913;51.120;6.772;2023-04-24T08:55:05;8.70;99.90
5775;DHT22;2913;51.120;6.772;2023-04-24T08:57:31;8.70;99.90
5775;DHT22;2913;51.120;6.772;2023-04-24T08:59:58;8.70;99.90
5775;DHT22;2913;51.120;6.772;2023-04-24T09:02:28;8.70;99.90
5775;DHT22;2913;51.120;6.772;2023-04-24T09:05:00;8.70;99.90
5775;DHT22;2913;51.120;6.772;2023-04-24T09:07:27;8.70;99.90
5775;DHT22;2913;51.120;6.772;2023-04-24T09:09:56;8.90;99.90
5775;DHT22;2913;51.120;6.772;2023-04-24T09:12:22;8.80;99.90
5775;DHT22;2913;51.120;6.772;2023-04-24T09:14:50;8.90;99.90
5775;DHT22;2913;51.120;6.772;2023-04-24T09:17:16;8.90;99.90
5775;DHT22;2913;51.120;6.772;2023-04-24T09:19:44;8.80;99.90
5775;DHT22;2913;51.120;6.772;2023-04-24T09:22:10;8.90;99.90
5775;DHT22;2913;51.120;6.772;2023-04-24T09:24:36;8.90;99.90
5775;DHT22;2913;51.120;6.772;2023-04-24T09:27:02;8.90;99.90
5775;DHT22;2913;51.120;6.772;2023-04-24T09:29:28;8.90;99.90
5775;DHT22;2913;51.120;6.772;2023-04-24T09:31:53;8.90;99.90
5775;DHT22;2913;51.120;6.772;2023-04-24T09:34:24;9.10;99.90
5775;DHT22;2913;51.120;6.772;2023-04-24T09:36:50;9.10;99.90
5775;DHT22;2913;51.120;6.772;2023-04-24T09:39:19;9.00;99.90
5775;DHT22;2913;51.120;6.772;2023-04-24T09:41:51;9.10;99.90
5775;DHT22;2913;51.120;6.772;2023-04-24T09:44:21;9.20;99.90
5775;DHT22;2913;51.120;6.772;2023-04-24T09:46:58;9.20;99.90
5775;DHT22;2913;51.120;6.772;2023-04-24T09:49:32;9.40;99.90
5775;DHT22;2913;51.120;6.772;2023-04-24T09:52:06;9.50;99.90
5775;DHT22;2913;51.120;6.772;2023-04-24T09:54:32;9.60;99.90
5775;DHT22;2913;51.120;6.772;2023-04-24T09:56:58;9.60;99.90
5775;DHT22;2913;51.120;6.772;2023-04-24T09:59:26;9.60;99.90
5775;DHT22;2913;51.120;6.772;2023-04-24T10:01:51;9.70;99.90
5775;DHT22;2913;51.120;6.772;2023-04-24T10:04:18;9.80;99.90
5775;DHT22;2913;51.120;6.772;2023-04-24T10:06:44;9.80;99.90
5775;DHT22;2913;51.120;6.772;2023-04-24T10:09:10;10.00;99.90
5775;DHT22;2913;51.120;6.772;2023-04-24T10:11:41;10.00;99.90
5775;DHT22;2913;51.120;6.772;2023-04-24T10:14:10;10.10;99.90
5775;DHT22;2913;51.120;6.772;2023-04-24T10:16:39;10.30;99.90
5775;DHT22;2913;51.120;6.772;2023-04-24T10:19:06;10.30;99.90
5775;DHT22;2913;51.120;6.772;2023-04-24T10:21:32;10.30;99.90
5775;DHT22;2913;51.120;6.772;2023-04-24T10:23:59;10.50;99.90
5775;DHT22;2913;51.120;6.772;2023-04-24T10:26:29;10.70;99.90
5775;DHT22;2913;51.120;6.772;2023-04-24T10:28:57;10.70;99.90
5775;DHT22;2913;51.120;6.772;2023-04-24T10:31:24;10.70;99.90
5775;DHT22;2913;51.120;6.772;2023-04-24T10:33:51;10.70;99.90
5775;DHT22;2913;51.120;6.772;2023-04-24T10:36:18;10.60;99.90
5775;DHT22;2913;51.120;6.772;2023-04-24T10:38:47;10.50;99.90
5775;DHT22;2913;51.120;6.772;2023-04-24T10:41:18;10.40;99.90
5775;DHT22;2913;51.120;6.772;2023-04-24T10:44:09;10.30;99.90
5775;DHT22;2913;51.120;6.772;2023-04-24T10:46:35;10.40;99.90
5775;DHT22;2913;51.120;6.772;2023-04-24T10:49:04;10.60;99.90
5775;DHT22;2913;51.120;6.772;2023-04-24T10:56:53;10.90;99.90
5775;DHT22;2913;51.120;6.772;2023-04-24T10:59:27;11.00;99.90
5775;DHT22;2913;51.120;6.772;2023-04-24T11:01:54;10.90;99.90
5775;DHT22;2913;51.120;6.772;2023-04-24T11:04:30;10.90;99.90
5775;DHT22;2913;51.120;6.772;2023-04-24T11:07:02;10.90;99.90
5775;DHT22;2913;51.120;6.772;2023-04-24T11:09:28;10.90;99.90
5775;DHT22;2913;51.120;6.772;2023-04-24T11:12:05;11.00;99.90
5775;DHT22;2913;51.120;6.772;2023-04-24T11:17:31;11.30;99.90
5775;DHT22;2913;51.120;6.772;2023-04-24T11:20:06;11.40;99.90
5775;DHT22;2913;51.120;6.772;2023-04-24T11:22:35;11.60;99.90
5775;DHT22;2913;51.120;6.772;2023-04-24T11:25:06;11.80;99.90
5775;DHT22;2913;51.120;6.772;2023-04-24T11:27:42;11.90;99.90
5775;DHT22;2913;51.120;6.772;2023-04-24T11:30:09;12.10;99.90
5775;DHT22;2913;51.120;6.772;2023-04-24T11:32:42;12.30;99.90
5775;DHT22;2913;51.120;6.772;2023-04-24T11:35:21;12.40;99.90
5775;DHT22;2913;51.120;6.772;2023-04-24T11:37:52;12.60;99.90
5775;DHT22;2913;51.120;6.772;2023-04-24T11:40:19;12.60;99.90
5775;DHT22;2913;51.120;6.772;2023-04-24T11:42:52;12.50;99.90
5775;DHT22;2913;51.120;6.772;2023-04-24T11:45:28;12.60;99.90
5775;DHT22;2913;51.120;6.772;2023-04-24T11:47:54;12.60;99.90
5775;DHT22;2913;51.120;6.772;2023-04-24T11:50:25;12.50;99.90
5775;DHT22;2913;51.120;6.772;2023-04-24T11:52:52;12.50;99.90
5775;DHT22;2913;51.120;6.772;2023-04-24T11:57:45;12.40;99.90
5775;DHT22;2913;51.120;6.772;2023-04-24T12:00:21;12.20;99.90
5775;DHT22;2913;51.120;6.772;2023-04-24T12:02:47;12.30;99.90
5775;DHT22;2913;51.120;6.772;2023-04-24T12:05:26;12.50;99.90
5775;DHT22;2913;51.120;6.772;2023-04-24T12:07:52;12.70;99.90
5775;DHT22;2913;51.120;6.772;2023-04-24T12:10:25;12.70;99.90
5775;DHT22;2913;51.120;6.772;2023-04-24T12:12:52;12.60;99.90
5775;DHT22;2913;51.120;6.772;2023-04-24T12:15:21;12.50;99.90
5775;DHT22;2913;51.120;6.772;2023-04-24T12:17:47;12.50;99.90
5775;DHT22;2913;51.120;6.772;2023-04-24T12:20:15;12.60;99.90
5775;DHT22;2913;51.120;6.772;2023-04-24T12:22:54;12.70;99.90
5775;DHT22;2913;51.120;6.772;2023-04-24T12:25:23;12.70;99.90
5775;DHT22;2913;51.120;6.772;2023-04-24T12:27:54;12.90;99.90
5775;DHT22;2913;51.120;6.772;2023-04-24T12:30:27;13.10;99.90
5775;DHT22;2913;51.120;6.772;2023-04-24T12:32:58;12.90;99.90
5775;DHT22;2913;51.120;6.772;2023-04-24T12:35:27;12.70;99.90
5775;DHT22;2913;51.120;6.772;2023-04-24T12:37:52;12.60;99.90
5775;DHT22;2913;51.120;6.772;2023-04-24T12:40:20;12.50;99.90
5775;DHT22;2913;51.120;6.772;2023-04-24T12:42:53;12.40;99.90
5775;DHT22;2913;51.120;6.772;2023-04-24T12:45:19;12.40;99.90
5775;DHT22;2913;51.120;6.772;2023-04-24T12:47:48;12.50;99.90
5775;DHT22;2913;51.120;6.772;2023-04-24T12:50:17;12.70;99.90
5775;DHT22;2913;51.120;6.772;2023-04-24T12:52:43;12.80;99.90
5775;DHT22;2913;51.120;6.772;2023-04-24T12:55:09;12.70;99.90
5775;DHT22;2913;51.120;6.772;2023-04-24T12:57:36;12.70;99.90
5775;DHT22;2913;51.120;6.772;2023-04-24T13:00:03;12.70;99.90
5775;DHT22;2913;51.120;6.772;2023-04-24T13:02:30;12.60;99.90
5775;DHT22;2913;51.120;6.772;2023-04-24T13:04:59;12.40;99.90
5775;DHT22;2913;51.120;6.772;2023-04-24T13:07:25;12.40;99.90
5775;DHT22;2913;51.120;6.772;2023-04-24T13:09:51;12.40;99.90
5775;DHT22;2913;51.120;6.772;2023-04-24T13:12:18;12.50;99.90
5775;DHT22;2913;51.120;6.772;2023-04-24T13:14:44;12.60;99.90
5775;DHT22;2913;51.120;6.772;2023-04-24T13:17:12;12.80;99.90
5775;DHT22;2913;51.120;6.772;2023-04-24T13:19:43;12.80;99.90
5775;DHT22;2913;51.120;6.772;2023-04-24T13:22:10;13.00;99.90
5775;DHT22;2913;51.120;6.772;2023-04-24T13:24:38;13.00;99.90
5775;DHT22;2913;51.120;6.772;2023-04-24T13:27:05;13.30;99.90
5775;DHT22;2913;51.120;6.772;2023-04-24T13:29:30;13.50;99.90
5775;DHT22;2913;51.120;6.772;2023-04-24T13:31:56;13.50;99.90
5775;DHT22;2913;51.120;6.772;2023-04-24T13:34:27;13.40;99.90
5775;DHT22;2913;51.120;6.772;2023-04-24T13:36:54;13.40;99.90
5775;DHT22;2913;51.120;6.772;2023-04-24T13:39:23;13.40;99.90
5775;DHT22;2913;51.120;6.772;2023-04-24T13:41:51;13.30;99.90
5775;DHT22;2913;51.120;6.772;2023-04-24T13:44:20;13.40;99.90
5775;DHT22;2913;51.120;6.772;2023-04-24T13:46:48;13.50;99.90
5775;DHT22;2913;51.120;6.772;2023-04-24T13:49:17;13.60;99.90
5775;DHT22;2913;51.120;6.772;2023-04-24T13:51:43;13.80;99.90
5775;DHT22;2913;51.120;6.772;2023-04-24T13:54:12;13.70;99.90
5775;DHT22;2913;51.120;6.772;2023-04-24T13:56:39;13.70;99.90
5775;DHT22;2913;51.120;6.772;2023-04-24T13:59:07;13.80;99.90
5775;DHT22;2913;51.120;6.772;2023-04-24T14:01:35;13.80;99.90
5775;DHT22;2913;51.120;6.772;2023-04-24T14:04:01;13.80;99.90
5775;DHT22;2913;51.120;6.772;2023-04-24T14:06:26;13.60;99.90
5775;DHT22;2913;51.120;6.772;2023-04-24T14:08:52;13.40;99.90
5775;DHT22;2913;51.120;6.772;2023-04-24T14:11:18;13.20;99.90
5775;DHT22;2913;51.120;6.772;2023-04-24T14:13:46;13.30;99.90
5775;DHT22;2913;51.120;6.772;2023-04-24T14:16:12;13.50;99.90
5775;DHT22;2913;51.120;6.772;2023-04-24T14:18:39;13.40;99.90
5775;DHT22;2913;51.120;6.772;2023-04-24T14:21:05;13.40;99.90
5775;DHT22;2913;51.120;6.772;2023-04-24T14:23:30;13.30;99.90
5775;DHT22;2913;51.120;6.772;2023-04-24T14:25:59;13.30;99.90
5775;DHT22;2913;51.120;6.772;2023-04-24T14:28:28;13.30;99.90
5775;DHT22;2913;51.120;6.772;2023-04-24T14:30:53;13.40;99.90
5775;DHT22;2913;51.120;6.772;2023-04-24T14:33:19;13.40;99.90
5775;DHT22;2913;51.120;6.772;2023-04-24T14:35:47;13.50;99.90
5775;DHT22;2913;51.120;6.772;2023-04-24T14:38:14;13.50;99.90
5775;DHT22;2913;51.120;6.772;2023-04-24T14:40:43;13.40;99.90
5775;DHT22;2913;51.120;6.772;2023-04-24T14:43:08;13.50;99.90
5775;DHT22;2913;51.120;6.772;2023-04-24T14:45:37;13.50;99.90
5775;DHT22;2913;51.120;6.772;2023-04-24T14:48:03;13.40;99.90
5775;DHT22;2913;51.120;6.772;2023-04-24T14:50:29;13.60;99.90
5775;DHT22;2913;51.120;6.772;2023-04-24T14:52:55;13.40;99.90
5775;DHT22;2913;51.120;6.772;2023-04-24T14:55:25;13.60;99.90
5775;DHT22;2913;51.120;6.772;2023-04-24T14:57:51;13.50;99.90
5775;DHT22;2913;51.120;6.772;2023-04-24T15:00:17;13.60;99.90
5775;DHT22;2913;51.120;6.772;2023-04-24T15:02:45;13.60;99.90
5775;DHT22;2913;51.120;6.772;2023-04-24T15:05:11;13.70;99.90
5775;DHT22;2913;51.120;6.772;2023-04-24T15:07:38;13.70;99.90
5775;DHT22;2913;51.120;6.772;2023-04-24T15:10:04;13.80;99.90
5775;DHT22;2913;51.120;6.772;2023-04-24T15:12:30;13.90;99.90
5775;DHT22;2913;51.120;6.772;2023-04-24T15:14:57;14.00;99.90
5775;DHT22;2913;51.120;6.772;2023-04-24T15:17:26;14.00;99.90
5775;DHT22;2913;51.120;6.772;2023-04-24T15:19:52;13.70;99.90
5775;DHT22;2913;51.120;6.772;2023-04-24T15:22:17;13.70;99.90
5775;DHT22;2913;51.120;6.772;2023-04-24T15:24:45;13.70;99.90
5775;DHT22;2913;51.120;6.772;2023-04-24T15:27:11;13.80;99.90
5775;DHT22;2913;51.120;6.772;2023-04-24T15:29:40;13.70;99.90
5775;DHT22;2913;51.120;6.772;2023-04-24T15:32:05;13.70;99.90
5775;DHT22;2913;51.120;6.772;2023-04-24T15:34:31;13.70;99.90
5775;DHT22;2913;51.120;6.772;2023-04-24T15:36:57;13.70;99.90
5775;DHT22;2913;51.120;6.772;2023-04-24T15:39:23;13.60;99.90
5775;DHT22;2913;51.120;6.772;2023-04-24T15:41:54;13.60;99.90
5775;DHT22;2913;51.120;6.772;2023-04-24T15:44:21;13.50;99.90
5775;DHT22;2913;51.120;6.772;2023-04-24T15:46:47;13.50;99.90
5775;DHT22;2913;51.120;6.772;2023-04-24T15:49:13;13.40;99.90
5775;DHT22;2913;51.120;6.772;2023-04-24T15:51:38;13.40;99.90
5775;DHT22;2913;51.120;6.772;2023-04-24T15:54:06;13.40;99.90
5775;DHT22;2913;51.120;6.772;2023-04-24T15:56:32;13.40;99.90
5775;DHT22;2913;51.120;6.772;2023-04-24T15:58:58;13.50;99.90
5775;DHT22;2913;51.120;6.772;2023-04-24T16:01:25;13.40;99.90
5775;DHT22;2913;51.120;6.772;2023-04-24T16:03:50;13.50;99.90
5775;DHT22;2913;51.120;6.772;2023-04-24T16:06:16;13.50;99.90
5775;DHT22;2913;51.120;6.772;2023-04-24T16:08:44;13.60;99.90
5775;DHT22;2913;51.120;6.772;2023-04-24T16:11:12;13.50;99.90
5775;DHT22;2913;51.120;6.772;2023-04-24T16:13:37;13.40;99.90
5775;DHT22;2913;51.120;6.772;2023-04-24T16:16:03;13.40;99.90
5775;DHT22;2913;51.120;6.772;2023-04-24T16:18:30;13.40;99.90
5775;DHT22;2913;51.120;6.772;2023-04-24T16:20:56;13.40;99.90